Time;durP1;ratioP1;P1;durP2;ratioP2;P2;SDS_P1;SDS_P2;PMS_P1;PMS_P2;Temp;Humidity;BMP_temperature;BMP_pressure;BME280_temperature;BME280_humidity;BME280_pressure;Samples;Min_cycle;Max_cycle;Signal;HPM_P1;HPM_P2
2024/01/27 00:00:14;;;;;;;5.70;4.70;;;;;;;1.65;84.61;99222.02;107235;1254;143866;-39
2024/01/27 00:03:40;;;;;;;5.60;4.60;;;;;;;1.62;84.45;99223.17;104234;1292;600423;-39
2024/01/27 00:06:07;;;;;;;4.90;4.20;;;;;;;1.67;84.33;99222.52;106767;1264;59626;-40
2024/01/27 00:08:35;;;;;;;7.10;5.20;;;;;;;1.70;84.47;99225.90;106765;1264;60004;-40
2024/01/27 00:11:02;;;;;;;5.90;4.60;;;;;;;1.68;84.50;99222.97;106795;1264;70954;-40
2024/01/27 00:13:30;;;;;;;6.40;5.10;;;;;;;1.63;84.58;99226.30;106723;1265;68625;-40
2024/01/27 00:15:57;;;;;;;6.00;4.20;;;;;;;1.61;84.56;99227.15;106812;1263;71385;-40
2024/01/27 00:18:25;;;;;;;6.30;4.60;;;;;;;1.63;84.37;99224.80;106885;1260;167047;-40
2024/01/27 00:20:52;;;;;;;4.50;3.80;;;;;;;1.67;84.26;99226.74;106963;1259;59752;-40
2024/01/27 00:23:20;;;;;;;5.70;4.40;;;;;;;1.62;84.25;99223.96;107032;1259;70921;-40
2024/01/27 00:25:47;;;;;;;6.00;4.60;;;;;;;1.56;84.67;99221.02;107018;1259;68669;-40
2024/01/27 00:28:15;;;;;;;7.10;4.90;;;;;;;1.53;84.86;99220.60;106939;1260;72840;-40
2024/01/27 00:30:42;;;;;;;5.50;4.50;;;;;;;1.57;84.71;99219.13;106949;1260;60904;-40
2024/01/27 00:33:10;;;;;;;5.50;4.30;;;;;;;1.62;84.37;99220.60;106986;1261;59965;-40
2024/01/27 00:35:37;;;;;;;6.00;4.40;;;;;;;1.59;84.52;99221.11;107060;1261;72700;-40
2024/01/27 00:38:05;;;;;;;5.90;4.60;;;;;;;1.57;84.66;99216.13;107025;1260;68705;-40
2024/01/27 00:40:32;;;;;;;6.90;4.90;;;;;;;1.51;84.74;99214.23;107020;1260;72339;-40
2024/01/27 00:43:02;;;;;;;6.10;4.80;;;;;;;1.47;84.83;99217.43;106990;1261;60909;-40
2024/01/27 00:45:30;;;;;;;5.00;4.30;;;;;;;1.52;84.77;99215.73;106992;1260;59491;-40
2024/01/27 00:47:58;;;;;;;5.90;4.60;;;;;;;1.60;84.84;99216.85;106982;1260;73078;-40
2024/01/27 00:50:26;;;;;;;5.10;4.50;;;;;;;1.62;84.86;99215.64;107007;1265;67150;-40
2024/01/27 00:52:53;;;;;;;6.40;4.90;;;;;;;1.58;84.81;99218.34;107037;1261;72809;-40
2024/01/27 00:55:25;;;;;;;5.70;4.80;;;;;;;1.53;84.97;99215.45;107044;1260;59551;-40
2024/01/27 00:57:53;;;;;;;6.40;4.70;;;;;;;1.51;85.10;99217.12;106978;1261;59594;-40
2024/01/27 01:00:21;;;;;;;5.40;4.10;;;;;;;1.55;84.82;99212.06;106980;1260;71454;-40
2024/01/27 01:02:49;;;;;;;4.80;4.20;;;;;;;1.62;84.48;99207.55;107040;1265;68363;-40
2024/01/27 01:05:17;;;;;;;6.80;4.50;;;;;;;1.62;84.68;99212.44;106998;1261;72542;-40
2024/01/27 01:07:45;;;;;;;6.60;4.70;;;;;;;1.63;85.09;99210.80;107020;1266;59743;-40
2024/01/27 01:10:12;;;;;;;6.90;5.00;;;;;;;1.64;84.76;99212.00;107004;1261;60091;-40
2024/01/27 01:12:40;;;;;;;5.90;4.50;;;;;;;1.58;84.51;99210.60;107026;1264;73105;-40
2024/01/27 01:15:08;;;;;;;5.00;4.20;;;;;;;1.60;84.24;99210.79;106899;1260;67421;-39
2024/01/27 01:17:36;;;;;;;5.80;4.20;;;;;;;1.65;84.46;99209.11;106965;1260;72707;-40
2024/01/27 01:20:04;;;;;;;6.40;4.30;;;;;;;1.65;84.52;99212.04;105428;1261;1003630;-40
2024/01/27 01:22:32;;;;;;;6.70;5.30;;;;;;;1.59;84.44;99214.27;106842;1259;60023;-40
2024/01/27 01:24:59;;;;;;;5.70;5.00;;;;;;;1.56;84.84;99207.39;107014;1260;71729;-39
2024/01/27 01:27:26;;;;;;;6.10;4.50;;;;;;;1.57;84.85;99207.42;107014;1261;68398;-40
2024/01/27 01:29:54;;;;;;;5.70;4.40;;;;;;;1.65;84.54;99205.48;106998;1261;72803;-40
2024/01/27 01:32:22;;;;;;;5.60;4.50;;;;;;;1.67;84.37;99202.84;107025;1265;59618;-40
2024/01/27 01:34:49;;;;;;;6.90;5.30;;;;;;;1.62;84.35;99201.96;106954;1261;60032;-40
2024/01/27 01:37:17;;;;;;;6.00;4.70;;;;;;;1.58;84.65;99198.92;106919;1261;71902;-40
2024/01/27 01:39:45;;;;;;;7.20;5.30;;;;;;;1.57;84.92;99199.95;106921;1259;66489;-40
2024/01/27 01:42:12;;;;;;;6.40;4.70;;;;;;;1.53;84.63;99199.30;106958;1260;71914;-40
2024/01/27 01:44:40;;;;;;;6.40;4.50;;;;;;;1.55;84.18;99195.83;107002;1266;59627;-40
2024/01/27 01:47:07;;;;;;;4.80;4.10;;;;;;;1.59;84.01;99198.14;107002;1261;60008;-40
2024/01/27 01:49:35;;;;;;;6.00;4.60;;;;;;;1.55;84.33;99197.33;106909;1260;73066;-40
2024/01/27 01:52:04;;;;;;;5.20;4.60;;;;;;;1.53;84.83;99194.70;107021;1261;67428;-40
2024/01/27 01:54:32;;;;;;;5.60;4.50;;;;;;;1.54;84.95;99198.52;107072;1261;72725;-40
2024/01/27 01:57:00;;;;;;;6.20;4.60;;;;;;;1.55;84.83;99195.95;106976;1263;60187;-40
2024/01/27 01:59:27;;;;;;;6.00;4.40;;;;;;;1.64;84.49;99192.70;106922;1260;59254;-40
2024/01/27 02:01:55;;;;;;;6.50;4.80;;;;;;;1.70;84.10;99190.64;106991;1260;73018;-40
2024/01/27 02:04:22;;;;;;;5.30;4.20;;;;;;;1.70;84.21;99194.52;107013;1261;68359;-40
2024/01/27 02:06:50;;;;;;;5.40;4.20;;;;;;;1.68;84.16;99194.33;107026;1261;71393;-40
2024/01/27 02:09:18;;;;;;;6.30;4.80;;;;;;;1.62;83.90;99195.92;106920;1260;59349;-40
2024/01/27 02:11:45;;;;;;;5.50;4.50;;;;;;;1.56;84.28;99197.66;107028;1261;59512;-40
2024/01/27 02:14:13;;;;;;;5.00;4.00;;;;;;;1.60;83.78;99196.13;107030;1266;71764;-40
2024/01/27 02:16:41;;;;;;;6.50;4.20;;;;;;;1.66;83.88;99199.45;107016;1265;67151;-40
2024/01/27 02:19:08;;;;;;;4.80;4.40;;;;;;;1.66;84.08;99198.90;107041;1264;72471;-40
2024/01/27 02:21:36;;;;;;;5.60;4.70;;;;;;;1.66;84.30;99198.66;107022;1260;59458;-40
2024/01/27 02:24:07;;;;;;;6.20;5.10;;;;;;;1.66;84.22;99196.30;107069;1261;59167;-40
2024/01/27 02:26:34;;;;;;;5.60;4.60;;;;;;;1.64;84.04;99200.69;106950;1266;73181;-40
2024/01/27 02:29:02;;;;;;;5.60;4.70;;;;;;;1.67;83.55;99203.50;106903;1260;68482;-40
2024/01/27 02:31:30;;;;;;;4.90;4.10;;;;;;;1.69;83.35;99203.02;106882;1261;71395;-40
2024/01/27 02:33:58;;;;;;;5.30;4.40;;;;;;;1.64;83.65;99201.54;106883;1263;59625;-40
2024/01/27 02:36:25;;;;;;;7.20;5.10;;;;;;;1.60;83.63;99205.21;106911;1260;60474;-40
2024/01/27 02:38:53;;;;;;;6.30;4.50;;;;;;;1.53;83.62;99200.90;107040;1260;72979;-40
2024/01/27 02:41:21;;;;;;;5.90;4.60;;;;;;;1.53;83.42;99204.84;107300;1257;67072;-40
2024/01/27 02:43:48;;;;;;;5.90;4.70;;;;;;;1.60;83.60;99210.13;107300;1260;72117;-40
2024/01/27 02:46:16;;;;;;;6.30;5.00;;;;;;;1.62;83.71;99208.00;107315;1257;59733;-40
2024/01/27 02:48:43;;;;;;;6.50;5.50;;;;;;;1.59;83.79;99210.15;107313;1257;59998;-40
2024/01/27 02:51:11;;;;;;;7.80;6.00;;;;;;;1.55;83.79;99212.66;107374;1258;71725;-40
2024/01/27 02:53:39;;;;;;;7.20;5.70;;;;;;;1.50;83.95;99216.24;107259;1263;68940;-40
2024/01/27 02:56:08;;;;;;;7.10;6.00;;;;;;;1.55;83.75;99212.01;107295;1258;72419;-40
2024/01/27 02:58:36;;;;;;;6.90;5.90;;;;;;;1.63;83.65;99213.25;107257;1257;59561;-40
2024/01/27 03:01:03;;;;;;;6.50;5.80;;;;;;;1.63;83.65;99210.02;105757;1258;1003805;-40
2024/01/27 03:03:31;;;;;;;8.20;6.70;;;;;;;1.60;83.89;99207.45;107230;1256;72808;-40
2024/01/27 03:05:59;;;;;;;7.80;6.10;;;;;;;1.56;83.53;99207.29;107284;1258;68335;-40
2024/01/27 03:08:26;;;;;;;8.60;5.90;;;;;;;1.53;83.91;99207.02;107273;1258;71421;-40
2024/01/27 03:10:54;;;;;;;5.90;5.20;;;;;;;1.64;83.56;99205.34;107256;1257;60041;-40
2024/01/27 03:13:21;;;;;;;7.80;5.50;;;;;;;1.72;83.36;99205.84;107294;1256;59743;-40
2024/01/27 03:15:49;;;;;;;5.80;5.20;;;;;;;1.71;83.35;99201.90;107284;1260;73092;-40
2024/01/27 03:18:17;;;;;;;6.70;5.50;;;;;;;1.69;83.36;99200.50;107313;1260;66248;-40
2024/01/27 03:20:45;;;;;;;6.30;5.30;;;;;;;1.61;83.44;99185.36;107296;1260;72365;-40
2024/01/27 03:23:12;;;;;;;7.20;5.30;;;;;;;1.61;83.17;99197.98;107285;1260;60868;-40
2024/01/27 03:25:40;;;;;;;5.30;4.70;;;;;;;1.63;82.86;99199.90;107193;1257;60058;-40
2024/01/27 03:28:07;;;;;;;5.80;4.80;;;;;;;1.68;83.02;99202.19;107210;1261;71886;-40
2024/01/27 03:30:35;;;;;;;5.30;4.70;;;;;;;1.67;82.96;99202.00;107231;1257;67108;-40
2024/01/27 03:33:03;;;;;;;6.30;5.40;;;;;;;1.63;83.04;99203.98;107179;1258;72568;-40
2024/01/27 03:35:30;;;;;;;6.20;5.30;;;;;;;1.59;83.22;99205.71;107170;1257;59867;-39
2024/01/27 03:37:58;;;;;;;5.60;5.00;;;;;;;1.58;83.33;99206.42;107173;1258;59269;-39
2024/01/27 03:40:28;;;;;;;4.50;3.90;;;;;;;1.65;82.95;99204.46;107194;1257;71770;-39
2024/01/27 03:42:56;;;;;;;4.70;4.20;;;;;;;1.67;82.64;99200.17;107189;1256;67580;-39
2024/01/27 03:45:23;;;;;;;6.40;4.70;;;;;;;1.62;82.78;99200.89;105742;1263;1003074;-39
2024/01/27 03:47:51;;;;;;;6.30;4.50;;;;;;;1.54;82.99;99200.96;107242;1262;59730;-39
2024/01/27 03:50:18;;;;;;;5.40;4.80;;;;;;;1.48;83.34;99201.33;107292;1260;59661;-39
2024/01/27 03:52:46;;;;;;;6.20;5.00;;;;;;;1.48;83.69;99199.31;107293;1257;72191;-39
2024/01/27 03:55:13;;;;;;;5.40;4.90;;;;;;;1.56;83.26;99202.73;107281;1257;67417;-39
2024/01/27 03:57:41;;;;;;;4.90;4.20;;;;;;;1.63;83.05;99200.07;107260;1260;72501;-39
2024/01/27 04:00:11;;;;;;;6.30;4.80;;;;;;;1.64;83.50;99199.02;107200;1260;59382;-39
2024/01/27 04:02:39;;;;;;;5.80;4.90;;;;;;;1.59;83.44;99192.58;107297;1261;60032;-39
2024/01/27 04:05:07;;;;;;;6.50;5.60;;;;;;;1.62;83.26;99201.05;107289;1262;73028;-39
2024/01/27 04:07:34;;;;;;;7.70;5.70;;;;;;;1.59;83.33;99198.30;107272;1259;68739;-39
2024/01/27 04:10:04;;;;;;;6.60;5.20;;;;;;;1.62;82.83;99201.16;107253;1258;72442;-40
2024/01/27 04:12:31;;;;;;;7.30;5.20;;;;;;;1.63;82.75;99204.30;107301;1257;60428;-39
2024/01/27 04:14:59;;;;;;;7.40;5.90;;;;;;;1.58;82.89;99207.02;107307;1262;59877;-39
2024/01/27 04:17:27;;;;;;;8.00;6.30;;;;;;;1.53;83.16;99204.64;106547;1262;1004359;-39
2024/01/27 04:19:55;;;;;;;7.10;5.30;;;;;;;1.48;83.22;99206.04;107245;1258;68359;-39
2024/01/27 04:22:22;;;;;;;6.40;5.40;;;;;;;1.48;83.27;99210.69;107150;1258;71403;-39
2024/01/27 04:24:50;;;;;;;8.80;5.50;;;;;;;1.53;82.96;99208.80;107195;1258;60401;-39
2024/01/27 04:27:17;;;;;;;6.80;5.10;;;;;;;1.53;83.20;99206.61;107280;1258;60863;-39
2024/01/27 04:29:45;;;;;;;9.00;6.90;;;;;;;1.48;83.37;99211.26;107276;1257;73943;-39
2024/01/27 04:32:13;;;;;;;7.20;6.10;;;;;;;1.46;83.58;99212.38;107285;1257;68408;-39
2024/01/27 04:34:40;;;;;;;7.70;6.40;;;;;;;1.45;83.59;99213.44;107298;1256;70167;-39
2024/01/27 04:37:08;;;;;;;7.70;6.10;;;;;;;1.48;83.45;99209.14;106515;1257;1003612;-39
2024/01/27 04:39:35;;;;;;;6.50;5.40;;;;;;;1.55;83.45;99214.89;107251;1258;60283;-39
2024/01/27 04:42:06;;;;;;;7.00;5.80;;;;;;;1.59;83.52;99213.48;107229;1256;73762;-39
2024/01/27 04:44:33;;;;;;;6.50;5.70;;;;;;;1.60;84.01;99212.31;107231;1260;68374;-39
2024/01/27 04:47:01;;;;;;;7.00;5.80;;;;;;;1.67;84.18;99215.26;107238;1260;72658;-39
2024/01/27 04:49:28;;;;;;;6.80;5.40;;;;;;;1.73;84.13;99218.63;107251;1258;60326;-39
2024/01/27 04:51:56;;;;;;;6.10;5.20;;;;;;;1.83;83.51;99220.58;105757;1257;1003651;-39
2024/01/27 04:54:23;;;;;;;6.10;5.10;;;;;;;1.92;83.16;99221.05;107204;1255;72668;-39
2024/01/27 04:56:51;;;;;;;6.20;5.20;;;;;;;1.99;83.30;99226.96;107255;1260;67605;-39
2024/01/27 04:59:18;;;;;;;5.70;5.10;;;;;;;2.02;83.08;99229.50;107256;1257;72676;-39
2024/01/27 05:01:46;;;;;;;6.90;5.80;;;;;;;2.06;83.16;99229.02;107246;1258;60431;-39
2024/01/27 05:04:13;;;;;;;6.30;5.10;;;;;;;2.11;82.79;99229.06;107210;1262;60422;-39
2024/01/27 05:06:45;;;;;;;5.20;4.70;;;;;;;2.17;82.14;99231.01;107177;1257;73791;-39
2024/01/27 05:09:13;;;;;;;4.70;4.30;;;;;;;2.24;81.63;99230.98;107270;1257;68006;-39
2024/01/27 05:11:42;;;;;;;6.20;5.30;;;;;;;2.28;81.70;99233.52;107223;1261;70411;-39
2024/01/27 05:14:10;;;;;;;7.10;5.10;;;;;;;2.30;81.68;99235.33;107249;1263;59685;-39
2024/01/27 05:16:37;;;;;;;5.60;4.70;;;;;;;2.32;81.25;99237.16;107209;1262;60438;-39
2024/01/27 05:19:05;;;;;;;7.10;5.40;;;;;;;2.27;80.76;99240.34;107101;1262;72644;-39
2024/01/27 05:21:32;;;;;;;5.50;4.70;;;;;;;2.16;80.49;99238.30;107118;1257;68650;-39
2024/01/27 05:24:00;;;;;;;4.50;4.00;;;;;;;2.12;80.14;99240.96;107166;1257;72510;-39
2024/01/27 05:26:27;;;;;;;5.10;4.50;;;;;;;2.12;80.16;99243.07;107194;1257;59324;-39
2024/01/27 05:28:55;;;;;;;6.20;5.30;;;;;;;2.09;80.47;99241.94;107135;1263;60277;-39
2024/01/27 05:31:22;;;;;;;6.40;4.60;;;;;;;2.09;80.56;99243.66;107094;1257;72554;-39
2024/01/27 05:33:50;;;;;;;5.60;4.80;;;;;;;2.06;80.63;99241.08;107103;1257;69473;-39
2024/01/27 05:36:18;;;;;;;5.80;4.90;;;;;;;2.01;80.51;99244.13;107053;1258;72041;-39
2024/01/27 05:38:45;;;;;;;6.30;5.40;;;;;;;1.99;80.77;99249.30;107139;1262;60878;-40
2024/01/27 05:41:14;;;;;;;6.60;5.20;;;;;;;2.05;80.55;99245.54;107181;1259;60398;-39
2024/01/27 05:43:41;;;;;;;5.60;4.90;;;;;;;2.12;80.38;99249.80;107180;1262;72614;-39
2024/01/27 05:46:10;;;;;;;5.20;4.60;;;;;;;2.12;80.29;99253.91;107143;1264;67383;-39
2024/01/27 05:48:37;;;;;;;6.20;4.90;;;;;;;2.08;80.32;99258.98;107183;1258;71408;-39
2024/01/27 05:51:05;;;;;;;6.10;5.30;;;;;;;1.99;80.12;99260.82;107219;1257;60514;-40
2024/01/27 05:53:35;;;;;;;5.80;5.00;;;;;;;1.88;80.32;99261.65;107242;1257;60356;-39
2024/01/27 05:56:03;;;;;;;6.40;4.90;;;;;;;1.82;80.48;99260.55;107229;1258;73898;-39
2024/01/27 05:58:30;;;;;;;4.70;4.00;;;;;;;1.83;80.59;99265.48;107203;1257;67161;-39
2024/01/27 06:00:58;;;;;;;5.00;4.10;;;;;;;1.88;80.47;99267.13;107232;1263;73105;-39
2024/01/27 06:03:26;;;;;;;5.20;4.30;;;;;;;1.88;80.75;99268.46;107095;1263;60457;-39
2024/01/27 06:05:53;;;;;;;7.80;4.70;;;;;;;1.90;80.87;99270.60;107108;1257;60252;-39
2024/01/27 06:08:21;;;;;;;5.60;5.00;;;;;;;1.90;81.12;99269.37;107079;1257;72502;-39
2024/01/27 06:10:49;;;;;;;5.30;4.70;;;;;;;1.83;80.72;99271.14;107150;1257;68711;-39
2024/01/27 06:13:16;;;;;;;5.50;4.90;;;;;;;1.80;80.57;99275.33;107081;1258;71055;-39
2024/01/27 06:15:44;;;;;;;5.70;5.00;;;;;;;1.82;80.59;99280.96;107183;1257;60485;-39
2024/01/27 06:18:11;;;;;;;6.50;5.60;;;;;;;1.81;81.17;99282.36;107209;1257;60335;-39
2024/01/27 06:20:40;;;;;;;6.00;5.10;;;;;;;1.80;81.29;99283.36;107176;1257;73050;-39
2024/01/27 06:23:08;;;;;;;8.50;6.00;;;;;;;1.80;81.25;99286.95;107188;1261;68514;-39
2024/01/27 06:25:35;;;;;;;7.40;5.80;;;;;;;1.77;81.30;99288.73;107179;1257;72696;-39
2024/01/27 06:28:03;;;;;;;7.80;6.50;;;;;;;1.78;81.05;99290.80;107159;1257;61045;-40
2024/01/27 06:30:31;;;;;;;6.60;5.40;;;;;;;1.82;81.05;99292.23;107311;1257;60071;-39
2024/01/27 06:32:58;;;;;;;6.30;5.30;;;;;;;1.84;81.11;99296.47;106457;1257;1003031;-39
2024/01/27 06:35:26;;;;;;;7.00;5.80;;;;;;;1.77;81.31;99297.16;107207;1258;68384;-39
2024/01/27 06:37:54;;;;;;;7.80;5.90;;;;;;;1.72;81.38;99298.41;107196;1257;72671;-39
2024/01/27 06:40:21;;;;;;;6.40;5.70;;;;;;;1.69;81.52;99300.13;107147;1257;60540;-39
2024/01/27 06:42:49;;;;;;;6.90;5.10;;;;;;;1.73;81.63;99300.88;107212;1258;60441;-39
2024/01/27 06:45:16;;;;;;;7.10;5.20;;;;;;;1.85;81.58;99301.63;107187;1262;73063;-39
2024/01/27 06:47:44;;;;;;;6.00;5.30;;;;;;;1.92;81.63;99303.27;107190;1257;68379;-39
2024/01/27 06:50:13;;;;;;;6.50;5.60;;;;;;;1.94;81.60;99306.32;107224;1263;72051;-39
2024/01/27 06:52:42;;;;;;;4.50;4.00;;;;;;;1.95;81.77;99307.48;107232;1258;60562;-39
2024/01/27 06:55:10;;;;;;;5.60;4.90;;;;;;;1.96;81.53;99316.34;107096;1257;60410;-39
2024/01/27 06:57:40;;;;;;;7.70;5.70;;;;;;;1.96;81.61;99316.19;107076;1257;73863;-39
2024/01/27 07:00:09;;;;;;;6.70;5.40;;;;;;;2.03;81.32;99321.68;107159;1257;68449;-39
2024/01/27 07:02:36;;;;;;;6.90;5.60;;;;;;;2.10;80.91;99326.05;107201;1263;71401;-39
2024/01/27 07:05:04;;;;;;;8.50;6.00;;;;;;;2.13;80.89;99320.38;107166;1258;60402;-39
2024/01/27 07:07:32;;;;;;;6.90;5.80;;;;;;;2.11;80.97;99318.69;107198;1257;60424;-39
2024/01/27 07:10:01;;;;;;;8.50;6.50;;;;;;;2.07;80.85;99321.21;107095;1257;73846;-39
2024/01/27 07:12:29;;;;;;;7.70;6.70;;;;;;;2.06;80.92;99323.44;107153;1258;68669;-39
2024/01/27 07:14:58;;;;;;;7.30;6.10;;;;;;;2.02;80.72;99321.77;107115;1263;71425;-39
2024/01/27 07:17:27;;;;;;;7.60;5.60;;;;;;;2.04;80.59;99321.34;107155;1258;61276;-39
2024/01/27 07:19:55;;;;;;;6.40;5.40;;;;;;;2.10;80.54;99325.63;107204;1258;60374;-39
2024/01/27 07:22:23;;;;;;;6.70;5.80;;;;;;;2.11;80.66;99321.48;107198;1262;73020;-39
2024/01/27 07:24:51;;;;;;;6.90;6.10;;;;;;;2.12;80.73;99326.50;107239;1258;68338;-39
2024/01/27 07:27:19;;;;;;;9.00;6.70;;;;;;;2.13;80.82;99328.02;107191;1257;72505;-39
2024/01/27 07:29:47;;;;;;;7.40;6.40;;;;;;;2.14;80.84;99333.27;107179;1257;60421;-39
2024/01/27 07:32:14;;;;;;;6.80;5.70;;;;;;;2.20;80.37;99331.55;107064;1263;60383;-39
2024/01/27 07:34:43;;;;;;;6.70;5.70;;;;;;;2.26;80.11;99333.01;107202;1258;72692;-39
2024/01/27 07:37:10;;;;;;;7.30;6.10;;;;;;;2.29;80.35;99332.16;107258;1257;68685;-39
2024/01/27 07:39:38;;;;;;;7.10;6.00;;;;;;;2.31;80.37;99334.80;107204;1258;72839;-39
2024/01/27 07:42:06;;;;;;;7.80;6.50;;;;;;;2.30;80.36;99335.80;107190;1257;60172;-39
2024/01/27 07:44:33;;;;;;;7.60;6.60;;;;;;;2.25;80.12;99332.87;107192;1260;60908;-39
2024/01/27 07:47:01;;;;;;;7.50;6.30;;;;;;;2.24;80.05;99332.73;107084;1257;72577;-39
2024/01/27 07:49:28;;;;;;;6.90;6.20;;;;;;;2.26;79.89;99333.86;107105;1259;67427;-39
2024/01/27 07:51:56;;;;;;;7.70;6.40;;;;;;;2.29;79.71;99338.05;107046;1257;72638;-39
2024/01/27 07:54:25;;;;;;;7.10;6.00;;;;;;;2.29;79.87;99339.88;107165;1257;60494;-39
2024/01/27 07:56:52;;;;;;;8.20;6.90;;;;;;;2.25;79.91;99339.38;107208;1258;59684;-39
2024/01/27 07:59:21;;;;;;;9.00;6.50;;;;;;;2.24;80.03;99340.22;107021;1257;73842;-39
2024/01/27 08:01:49;;;;;;;7.80;6.40;;;;;;;2.21;80.00;99342.10;107122;1257;68304;-39
2024/01/27 08:04:16;;;;;;;8.00;5.90;;;;;;;2.23;80.05;99343.40;107143;1257;71062;-39
2024/01/27 08:06:51;;;;;;;6.80;6.10;;;;;;;2.33;79.99;99344.60;107119;1257;60509;-39
2024/01/27 08:09:19;;;;;;;7.70;6.40;;;;;;;2.39;80.03;99346.15;107140;1257;60529;-39
2024/01/27 08:11:51;;;;;;;9.30;7.70;;;;;;;2.43;80.24;99348.35;107226;1256;73847;-40
2024/01/27 08:14:19;;;;;;;9.40;7.70;;;;;;;2.45;79.94;99347.08;107164;1258;67108;-39
2024/01/27 08:16:47;;;;;;;10.70;7.80;;;;;;;2.41;79.52;99354.20;107238;1257;72478;-39
2024/01/27 08:19:19;;;;;;;10.50;8.00;;;;;;;2.35;79.48;99357.13;107312;1257;60790;-39
2024/01/27 08:21:48;;;;;;;8.40;6.70;;;;;;;2.40;79.44;99362.98;107285;1257;60102;-39
2024/01/27 08:24:16;;;;;;;8.60;6.40;;;;;;;2.46;79.22;99362.79;107261;1257;73825;-39
2024/01/27 08:26:44;;;;;;;6.70;5.80;;;;;;;2.44;79.42;99364.92;107214;1257;67585;-39
2024/01/27 08:29:12;;;;;;;8.70;6.90;;;;;;;2.44;79.58;99368.83;107311;1257;72699;-39
2024/01/27 08:31:39;;;;;;;9.40;6.80;;;;;;;2.44;79.68;99365.67;107238;1257;60391;-39
2024/01/27 08:34:07;;;;;;;8.70;6.90;;;;;;;2.46;79.68;99370.19;107187;1257;59322;-39
2024/01/27 08:36:35;;;;;;;7.90;6.10;;;;;;;2.45;79.68;99370.77;107202;1257;73851;-39
2024/01/27 08:39:03;;;;;;;7.40;5.80;;;;;;;2.52;79.36;99371.19;107265;1256;67095;-39
2024/01/27 08:41:30;;;;;;;6.00;5.30;;;;;;;2.58;79.18;99373.34;107165;1257;71421;-39
2024/01/27 08:43:58;;;;;;;6.70;5.30;;;;;;;2.60;79.29;99370.84;107256;1257;60420;-40
2024/01/27 08:46:25;;;;;;;6.60;5.60;;;;;;;2.60;79.26;99371.70;107239;1257;60174;-39
2024/01/27 08:48:53;;;;;;;6.60;5.50;;;;;;;2.61;79.30;99372.41;107296;1257;73901;-39
2024/01/27 08:51:21;;;;;;;8.50;7.10;;;;;;;2.57;79.08;99372.67;107293;1256;68334;-39
2024/01/27 08:53:48;;;;;;;7.60;6.10;;;;;;;2.55;79.20;99373.58;107301;1256;72679;-39
2024/01/27 08:56:19;;;;;;;7.20;5.60;;;;;;;2.60;78.92;99377.48;107264;1257;60437;-39
2024/01/27 08:58:47;;;;;;;7.50;5.60;;;;;;;2.65;78.87;99375.37;107279;1256;60444;-39
2024/01/27 09:01:18;;;;;;;7.10;5.90;;;;;;;2.65;79.03;99383.62;107307;1256;72432;-39
2024/01/27 09:03:46;;;;;;;7.90;5.90;;;;;;;2.66;79.25;99381.83;107288;1260;67238;-39
2024/01/27 09:06:14;;;;;;;7.00;5.40;;;;;;;2.69;79.38;99388.10;107210;1257;72645;-39
2024/01/27 09:08:41;;;;;;;8.00;6.50;;;;;;;2.72;79.20;99382.79;107349;1256;60383;-39
2024/01/27 09:11:09;;;;;;;8.10;5.80;;;;;;;2.74;79.54;99384.06;107252;1257;60427;-39
2024/01/27 09:13:37;;;;;;;6.80;5.40;;;;;;;2.82;79.13;99388.37;107251;1260;73835;-39
2024/01/27 09:16:05;;;;;;;5.80;5.20;;;;;;;2.88;78.67;99387.55;107332;1257;67530;-39
2024/01/27 09:18:32;;;;;;;7.30;6.20;;;;;;;2.91;78.75;99386.23;107228;1257;72016;-39
2024/01/27 09:21:00;;;;;;;7.40;6.00;;;;;;;2.89;78.45;99384.87;107343;1256;59311;-39
2024/01/27 09:23:28;;;;;;;7.30;6.10;;;;;;;2.81;78.33;99388.93;107252;1257;60507;-39
2024/01/27 09:25:55;;;;;;;6.20;5.20;;;;;;;2.76;78.43;99391.13;107276;1257;73825;-39
2024/01/27 09:28:23;;;;;;;7.50;5.70;;;;;;;2.72;78.52;99391.29;107249;1257;67077;-39
2024/01/27 09:30:51;;;;;;;6.50;5.60;;;;;;;2.76;78.40;99390.02;107259;1257;72768;-39
2024/01/27 09:33:22;;;;;;;6.50;5.80;;;;;;;2.82;78.24;99385.68;107277;1256;60442;-39
2024/01/27 09:35:51;;;;;;;7.90;6.10;;;;;;;2.78;78.06;99389.38;107293;1257;60494;-39
2024/01/27 09:38:18;;;;;;;8.80;6.70;;;;;;;2.67;78.03;99393.35;107360;1257;73775;-40
2024/01/27 09:40:46;;;;;;;8.00;6.60;;;;;;;2.55;78.29;99392.69;107338;1257;68891;-39
2024/01/27 09:43:14;;;;;;;8.20;6.20;;;;;;;2.52;78.86;99392.34;107313;1257;71934;-40
2024/01/27 09:45:42;;;;;;;8.70;6.20;;;;;;;2.54;78.84;99394.59;107026;1257;60421;-39
2024/01/27 09:48:11;;;;;;;7.00;5.40;;;;;;;2.60;78.89;99398.66;107280;1256;60493;-40
2024/01/27 09:50:45;;;;;;;;;;;;;;;2.66;79.09;99397.02;107318;1257;73818;-39
2024/01/27 09:53:12;;;;;;;8.10;6.30;;;;;;;2.68;79.18;99397.82;107268;1258;68399;-39
2024/01/27 09:55:40;;;;;;;9.10;6.60;;;;;;;2.68;79.29;99397.34;107198;1257;72956;-40
2024/01/27 09:58:08;;;;;;;7.30;6.20;;;;;;;2.70;79.42;99403.36;107263;1257;60501;-39
2024/01/27 10:00:38;;;;;;;8.00;5.80;;;;;;;2.72;79.13;99405.80;107219;1256;60376;-40
2024/01/27 10:03:06;;;;;;;8.00;6.20;;;;;;;2.77;78.98;99406.95;107245;1257;73893;-40
2024/01/27 10:05:33;;;;;;;9.60;6.70;;;;;;;2.83;78.68;99406.80;107257;1256;68394;-39
2024/01/27 10:08:01;;;;;;;9.60;6.80;;;;;;;2.85;78.47;99410.25;107257;1256;71440;-40
2024/01/27 10:10:28;;;;;;;10.80;7.00;;;;;;;2.81;78.55;99413.35;107169;1257;60418;-40
2024/01/27 10:12:58;;;;;;;8.40;6.60;;;;;;;2.81;78.73;99419.75;107154;1256;60102;-40
2024/01/27 10:15:27;;;;;;;;;;;;;;;2.78;78.48;99417.59;107145;1262;73992;-40
2024/01/27 10:18:06;;;;;;;7.40;5.30;;;;;;;2.71;78.64;99416.96;107179;1257;67091;-40
2024/01/27 10:20:34;;;;;;;7.40;6.40;;;;;;;2.72;78.59;99416.31;107266;1257;72338;-40
2024/01/27 10:23:11;;;;;;;7.50;6.20;;;;;;;2.77;78.46;99418.32;107285;1257;60340;-40
2024/01/27 10:25:40;;;;;;;8.10;6.80;;;;;;;2.79;78.79;99421.91;107324;1257;60386;-40
2024/01/27 10:28:08;;;;;;;8.90;6.80;;;;;;;2.78;78.86;99421.29;107275;1257;73952;-40
2024/01/27 10:30:37;;;;;;;7.60;6.50;;;;;;;2.73;78.75;99420.94;107340;1256;67809;-40
2024/01/27 10:33:04;;;;;;;9.00;6.80;;;;;;;2.69;78.78;99422.11;107266;1257;72801;-40
2024/01/27 10:35:32;;;;;;;8.80;6.70;;;;;;;2.69;79.07;99426.02;107209;1256;60623;-40
2024/01/27 10:38:00;;;;;;;8.50;6.70;;;;;;;2.74;78.64;99422.73;107187;1256;60464;-40
2024/01/27 10:40:27;;;;;;;10.40;8.10;;;;;;;2.76;78.62;99424.02;107223;1257;73854;-40
2024/01/27 10:43:15;;;;;;;10.00;7.70;;;;;;;2.78;79.04;99417.98;107276;1257;69152;-40
2024/01/27 10:45:44;;;;;;;9.10;7.40;;;;;;;2.80;79.14;99424.66;107144;1257;72342;-40
2024/01/27 10:48:12;;;;;;;9.90;7.50;;;;;;;2.79;78.90;99432.20;107237;1257;60414;-40
2024/01/27 10:50:40;;;;;;;9.40;6.90;;;;;;;2.76;79.00;99436.27;107224;1257;60354;-40
2024/01/27 10:53:22;;;;;;;8.20;6.60;;;;;;;2.81;78.81;99439.20;107338;1260;73813;-40
2024/01/27 10:55:53;;;;;;;8.30;6.90;;;;;;;2.94;78.63;99442.89;107346;1257;68830;-40
2024/01/27 10:58:22;;;;;;;8.60;6.20;;;;;;;2.97;78.38;99437.02;107234;1257;72856;-40
2024/01/27 11:00:50;;;;;;;8.80;6.30;;;;;;;2.97;78.33;99437.08;107318;1260;60476;-40
2024/01/27 11:03:21;;;;;;;9.20;6.90;;;;;;;2.93;78.08;99440.92;107253;1256;60533;-40
2024/01/27 11:05:49;;;;;;;10.80;8.00;;;;;;;2.90;78.19;99441.77;107108;1257;72714;-40
2024/01/27 11:08:16;;;;;;;9.70;6.80;;;;;;;2.87;78.04;99440.55;107023;1256;69064;-40
2024/01/27 11:10:44;;;;;;;9.70;6.70;;;;;;;2.89;78.01;99445.54;107105;1257;70428;-40
2024/01/27 11:13:11;;;;;;;8.70;6.60;;;;;;;2.95;77.86;99448.64;107135;1257;60320;-40
2024/01/27 11:15:39;;;;;;;8.80;6.50;;;;;;;2.95;77.95;99446.94;107132;1256;59228;-40
2024/01/27 11:18:06;;;;;;;7.70;6.50;;;;;;;2.94;78.15;99453.08;107274;1257;73970;-40
2024/01/27 11:20:35;;;;;;;8.50;6.60;;;;;;;2.95;77.95;99454.73;107236;1256;68918;-40
2024/01/27 11:23:11;;;;;;;;;;;;;;;2.92;78.02;99455.52;107205;1257;74838;-40
2024/01/27 11:25:38;;;;;;;11.30;8.10;;;;;;;2.87;78.16;99458.92;107183;1257;60443;-40
2024/01/27 11:28:14;;;;;;;13.00;7.80;;;;;;;2.85;78.54;99460.36;107335;1257;60313;-40
2024/01/27 11:30:46;;;;;;;9.10;6.80;;;;;;;2.91;78.29;99461.13;107216;1256;72584;-40
2024/01/27 11:33:13;;;;;;;9.70;7.30;;;;;;;2.95;77.89;99467.13;107193;1257;68682;-40
2024/01/27 11:35:41;;;;;;;10.10;7.90;;;;;;;2.93;77.95;99470.65;107253;1257;71310;-40
2024/01/27 11:38:09;;;;;;;10.30;7.90;;;;;;;2.89;77.99;99473.02;107256;1260;60322;-40